sensor_id;sensor_type;location;lat;lon;timestamp;P1;durP1;ratioP1;P2;durP2;ratioP2
1000;SDS011;489;47.806;12.858;2023-06-22T00:01:42;10.97;;;6.40;;
1000;SDS011;489;47.806;12.858;2023-06-22T00:03:44;10.60;;;5.77;;
1000;SDS011;489;47.806;12.858;2023-06-22T00:05:46;8.67;;;7.10;;
1000;SDS011;489;47.806;12.858;2023-06-22T00:07:48;7.87;;;7.00;;
1000;SDS011;489;47.806;12.858;2023-06-22T00:09:50;8.10;;;6.73;;
1000;SDS011;489;47.806;12.858;2023-06-22T00:11:52;8.60;;;6.97;;
1000;SDS011;489;47.806;12.858;2023-06-22T00:13:55;7.40;;;6.70;;
1000;SDS011;489;47.806;12.858;2023-06-22T00:15:57;7.60;;;6.80;;
1000;SDS011;489;47.806;12.858;2023-06-22T00:17:59;7.37;;;5.93;;
1000;SDS011;489;47.806;12.858;2023-06-22T00:20:03;7.17;;;6.40;;
1000;SDS011;489;47.806;12.858;2023-06-22T00:22:08;11.43;;;6.40;;
1000;SDS011;489;47.806;12.858;2023-06-22T00:24:10;7.80;;;7.00;;
1000;SDS011;489;47.806;12.858;2023-06-22T00:26:12;11.50;;;7.33;;
1000;SDS011;489;47.806;12.858;2023-06-22T00:28:13;8.50;;;7.60;;
1000;SDS011;489;47.806;12.858;2023-06-22T00:30:17;8.77;;;6.60;;
1000;SDS011;489;47.806;12.858;2023-06-22T00:32:19;8.50;;;6.10;;
1000;SDS011;489;47.806;12.858;2023-06-22T00:34:21;8.07;;;6.50;;
1000;SDS011;489;47.806;12.858;2023-06-22T00:36:23;6.83;;;6.13;;
1000;SDS011;489;47.806;12.858;2023-06-22T00:38:25;7.23;;;6.33;;
1000;SDS011;489;47.806;12.858;2023-06-22T00:40:27;9.77;;;6.83;;
1000;SDS011;489;47.806;12.858;2023-06-22T00:42:31;6.10;;;5.50;;
1000;SDS011;489;47.806;12.858;2023-06-22T00:44:34;6.93;;;6.23;;
1000;SDS011;489;47.806;12.858;2023-06-22T00:46:38;8.70;;;6.87;;
1000;SDS011;489;47.806;12.858;2023-06-22T00:48:41;8.20;;;6.20;;
1000;SDS011;489;47.806;12.858;2023-06-22T00:50:44;7.00;;;6.30;;
1000;SDS011;489;47.806;12.858;2023-06-22T00:52:52;8.50;;;6.23;;
1000;SDS011;489;47.806;12.858;2023-06-22T00:54:56;9.17;;;7.03;;
1000;SDS011;489;47.806;12.858;2023-06-22T00:57:00;9.13;;;7.80;;
1000;SDS011;489;47.806;12.858;2023-06-22T00:59:02;9.43;;;6.80;;
1000;SDS011;489;47.806;12.858;2023-06-22T01:01:04;9.33;;;7.23;;
1000;SDS011;489;47.806;12.858;2023-06-22T01:03:07;9.13;;;6.80;;
1000;SDS011;489;47.806;12.858;2023-06-22T01:05:10;8.63;;;6.63;;
1000;SDS011;489;47.806;12.858;2023-06-22T01:07:16;8.93;;;7.37;;
1000;SDS011;489;47.806;12.858;2023-06-22T01:09:25;7.67;;;6.37;;
1000;SDS011;489;47.806;12.858;2023-06-22T01:11:31;8.30;;;7.23;;
1000;SDS011;489;47.806;12.858;2023-06-22T01:13:35;11.20;;;7.07;;
1000;SDS011;489;47.806;12.858;2023-06-22T01:15:42;7.40;;;6.00;;
1000;SDS011;489;47.806;12.858;2023-06-22T01:17:49;9.10;;;7.30;;
1000;SDS011;489;47.806;12.858;2023-06-22T01:19:54;7.10;;;6.40;;
1000;SDS011;489;47.806;12.858;2023-06-22T01:21:56;8.30;;;6.47;;
1000;SDS011;489;47.806;12.858;2023-06-22T01:24:02;9.27;;;7.40;;
1000;SDS011;489;47.806;12.858;2023-06-22T01:26:12;8.80;;;7.57;;
1000;SDS011;489;47.806;12.858;2023-06-22T01:28:33;7.70;;;6.60;;
1000;SDS011;489;47.806;12.858;2023-06-22T01:30:45;9.10;;;7.03;;
1000;SDS011;489;47.806;12.858;2023-06-22T01:32:47;8.30;;;7.50;;
1000;SDS011;489;47.806;12.858;2023-06-22T01:34:49;8.53;;;7.43;;
1000;SDS011;489;47.806;12.858;2023-06-22T01:36:52;8.00;;;7.20;;
1000;SDS011;489;47.806;12.858;2023-06-22T01:38:54;9.43;;;7.53;;
1000;SDS011;489;47.806;12.858;2023-06-22T01:40:57;9.57;;;7.00;;
1000;SDS011;489;47.806;12.858;2023-06-22T01:43:00;7.97;;;7.13;;
1000;SDS011;489;47.806;12.858;2023-06-22T01:45:04;8.60;;;7.47;;
1000;SDS011;489;47.806;12.858;2023-06-22T01:47:07;10.27;;;7.43;;
1000;SDS011;489;47.806;12.858;2023-06-22T01:49:10;8.97;;;7.70;;
1000;SDS011;489;47.806;12.858;2023-06-22T01:51:12;9.10;;;8.10;;
1000;SDS011;489;47.806;12.858;2023-06-22T01:53:14;8.90;;;8.00;;
1000;SDS011;489;47.806;12.858;2023-06-22T01:55:16;12.30;;;7.80;;
1000;SDS011;489;47.806;12.858;2023-06-22T01:57:18;8.83;;;7.23;;
1000;SDS011;489;47.806;12.858;2023-06-22T01:59:25;8.27;;;7.47;;
1000;SDS011;489;47.806;12.858;2023-06-22T02:01:31;7.90;;;7.10;;
1000;SDS011;489;47.806;12.858;2023-06-22T02:03:37;7.60;;;6.83;;
1000;SDS011;489;47.806;12.858;2023-06-22T02:05:43;8.10;;;6.97;;
1000;SDS011;489;47.806;12.858;2023-06-22T02:07:52;9.27;;;7.40;;
1000;SDS011;489;47.806;12.858;2023-06-22T02:09:59;8.33;;;7.33;;
1000;SDS011;489;47.806;12.858;2023-06-22T02:12:04;9.17;;;7.73;;
1000;SDS011;489;47.806;12.858;2023-06-22T02:14:07;8.30;;;6.60;;
1000;SDS011;489;47.806;12.858;2023-06-22T02:16:09;10.93;;;7.70;;
1000;SDS011;489;47.806;12.858;2023-06-22T02:18:15;8.43;;;7.57;;
1000;SDS011;489;47.806;12.858;2023-06-22T02:20:17;12.77;;;6.83;;
1000;SDS011;489;47.806;12.858;2023-06-22T02:22:20;8.80;;;7.40;;
1000;SDS011;489;47.806;12.858;2023-06-22T02:24:22;7.33;;;6.60;;
1000;SDS011;489;47.806;12.858;2023-06-22T02:26:25;8.20;;;7.07;;
1000;SDS011;489;47.806;12.858;2023-06-22T02:28:27;8.30;;;6.83;;
1000;SDS011;489;47.806;12.858;2023-06-22T02:30:29;9.00;;;6.40;;
1000;SDS011;489;47.806;12.858;2023-06-22T02:32:31;8.77;;;7.13;;
1000;SDS011;489;47.806;12.858;2023-06-22T02:34:36;10.87;;;7.30;;
1000;SDS011;489;47.806;12.858;2023-06-22T02:36:38;8.50;;;6.90;;
1000;SDS011;489;47.806;12.858;2023-06-22T02:38:40;9.40;;;7.40;;
1000;SDS011;489;47.806;12.858;2023-06-22T02:40:48;8.57;;;6.80;;
1000;SDS011;489;47.806;12.858;2023-06-22T02:42:51;12.40;;;7.30;;
1000;SDS011;489;47.806;12.858;2023-06-22T02:44:53;8.70;;;7.20;;
1000;SDS011;489;47.806;12.858;2023-06-22T02:46:55;8.90;;;6.97;;
1000;SDS011;489;47.806;12.858;2023-06-22T02:48:57;11.00;;;7.17;;
1000;SDS011;489;47.806;12.858;2023-06-22T02:51:02;7.73;;;6.93;;
1000;SDS011;489;47.806;12.858;2023-06-22T02:53:04;8.10;;;6.53;;
1000;SDS011;489;47.806;12.858;2023-06-22T02:55:10;7.83;;;7.00;;
1000;SDS011;489;47.806;12.858;2023-06-22T02:57:12;9.40;;;7.00;;
1000;SDS011;489;47.806;12.858;2023-06-22T02:59:16;8.53;;;6.33;;
1000;SDS011;489;47.806;12.858;2023-06-22T03:01:21;9.80;;;6.93;;
1000;SDS011;489;47.806;12.858;2023-06-22T03:03:24;8.80;;;6.93;;
1000;SDS011;489;47.806;12.858;2023-06-22T03:05:27;7.23;;;6.10;;
1000;SDS011;489;47.806;12.858;2023-06-22T03:07:32;8.43;;;6.30;;
1000;SDS011;489;47.806;12.858;2023-06-22T03:09:34;7.73;;;6.30;;
1000;SDS011;489;47.806;12.858;2023-06-22T03:11:36;9.43;;;6.00;;
1000;SDS011;489;47.806;12.858;2023-06-22T03:13:38;8.83;;;6.50;;
1000;SDS011;489;47.806;12.858;2023-06-22T03:15:41;9.50;;;7.00;;
1000;SDS011;489;47.806;12.858;2023-06-22T03:17:43;9.30;;;6.63;;
1000;SDS011;489;47.806;12.858;2023-06-22T03:19:46;10.50;;;6.27;;
1000;SDS011;489;47.806;12.858;2023-06-22T03:21:48;8.13;;;6.13;;
1000;SDS011;489;47.806;12.858;2023-06-22T03:23:51;7.80;;;6.37;;
1000;SDS011;489;47.806;12.858;2023-06-22T03:25:53;8.83;;;6.73;;
1000;SDS011;489;47.806;12.858;2023-06-22T03:27:56;9.97;;;6.50;;
1000;SDS011;489;47.806;12.858;2023-06-22T03:29:59;9.67;;;7.00;;
1000;SDS011;489;47.806;12.858;2023-06-22T03:32:01;8.67;;;6.80;;
1000;SDS011;489;47.806;12.858;2023-06-22T03:34:05;10.70;;;7.00;;
1000;SDS011;489;47.806;12.858;2023-06-22T03:36:08;10.23;;;7.53;;
1000;SDS011;489;47.806;12.858;2023-06-22T03:38:10;8.67;;;7.00;;
1000;SDS011;489;47.806;12.858;2023-06-22T03:40:13;8.00;;;7.20;;
1000;SDS011;489;47.806;12.858;2023-06-22T03:42:15;7.70;;;6.97;;
1000;SDS011;489;47.806;12.858;2023-06-22T03:44:18;11.90;;;8.13;;
1000;SDS011;489;47.806;12.858;2023-06-22T03:46:19;7.77;;;6.93;;
1000;SDS011;489;47.806;12.858;2023-06-22T03:48:21;14.97;;;8.40;;
1000;SDS011;489;47.806;12.858;2023-06-22T03:50:24;9.67;;;7.30;;
1000;SDS011;489;47.806;12.858;2023-06-22T03:52:25;9.00;;;7.80;;
1000;SDS011;489;47.806;12.858;2023-06-22T03:54:27;9.20;;;8.30;;
1000;SDS011;489;47.806;12.858;2023-06-22T03:56:31;8.47;;;7.43;;
1000;SDS011;489;47.806;12.858;2023-06-22T03:58:33;9.40;;;7.83;;
1000;SDS011;489;47.806;12.858;2023-06-22T04:00:36;11.20;;;8.43;;
1000;SDS011;489;47.806;12.858;2023-06-22T04:02:42;9.57;;;7.60;;
1000;SDS011;489;47.806;12.858;2023-06-22T04:04:44;11.67;;;7.80;;
1000;SDS011;489;47.806;12.858;2023-06-22T04:06:46;12.53;;;7.80;;
1000;SDS011;489;47.806;12.858;2023-06-22T04:08:48;9.00;;;7.50;;
1000;SDS011;489;47.806;12.858;2023-06-22T04:10:51;8.77;;;7.67;;
1000;SDS011;489;47.806;12.858;2023-06-22T04:12:54;10.43;;;7.70;;
1000;SDS011;489;47.806;12.858;2023-06-22T04:14:57;7.63;;;6.77;;
1000;SDS011;489;47.806;12.858;2023-06-22T04:16:59;8.90;;;8.00;;
1000;SDS011;489;47.806;12.858;2023-06-22T04:19:01;12.37;;;8.53;;
1000;SDS011;489;47.806;12.858;2023-06-22T04:21:03;8.57;;;7.70;;
1000;SDS011;489;47.806;12.858;2023-06-22T04:23:06;8.47;;;7.27;;
1000;SDS011;489;47.806;12.858;2023-06-22T04:25:08;8.73;;;7.37;;
1000;SDS011;489;47.806;12.858;2023-06-22T04:27:10;9.50;;;7.90;;
1000;SDS011;489;47.806;12.858;2023-06-22T04:29:13;9.73;;;7.57;;
1000;SDS011;489;47.806;12.858;2023-06-22T04:31:15;10.20;;;8.03;;
1000;SDS011;489;47.806;12.858;2023-06-22T04:33:17;10.20;;;7.93;;
1000;SDS011;489;47.806;12.858;2023-06-22T04:35:22;9.00;;;7.93;;
1000;SDS011;489;47.806;12.858;2023-06-22T04:37:25;11.93;;;7.90;;
1000;SDS011;489;47.806;12.858;2023-06-22T04:39:27;8.97;;;8.07;;
1000;SDS011;489;47.806;12.858;2023-06-22T04:41:29;8.33;;;7.47;;
1000;SDS011;489;47.806;12.858;2023-06-22T04:43:42;11.83;;;7.70;;
1000;SDS011;489;47.806;12.858;2023-06-22T04:45:45;11.40;;;7.73;;
1000;SDS011;489;47.806;12.858;2023-06-22T04:47:53;9.33;;;7.70;;
1000;SDS011;489;47.806;12.858;2023-06-22T04:49:55;11.87;;;8.33;;
1000;SDS011;489;47.806;12.858;2023-06-22T04:51:58;10.17;;;7.70;;
1000;SDS011;489;47.806;12.858;2023-06-22T04:54:00;9.50;;;7.73;;
1000;SDS011;489;47.806;12.858;2023-06-22T04:56:02;10.83;;;7.40;;
1000;SDS011;489;47.806;12.858;2023-06-22T04:58:05;10.83;;;8.17;;
1000;SDS011;489;47.806;12.858;2023-06-22T05:00:08;8.93;;;7.93;;
1000;SDS011;489;47.806;12.858;2023-06-22T05:02:15;11.37;;;8.93;;
1000;SDS011;489;47.806;12.858;2023-06-22T05:04:17;9.93;;;8.93;;
1000;SDS011;489;47.806;12.858;2023-06-22T05:06:19;11.30;;;8.70;;
1000;SDS011;489;47.806;12.858;2023-06-22T05:08:20;10.63;;;8.53;;
1000;SDS011;489;47.806;12.858;2023-06-22T05:10:26;14.70;;;8.23;;
1000;SDS011;489;47.806;12.858;2023-06-22T05:12:29;9.60;;;8.37;;
1000;SDS011;489;47.806;12.858;2023-06-22T05:14:31;10.47;;;8.40;;
1000;SDS011;489;47.806;12.858;2023-06-22T05:16:33;13.40;;;9.23;;
1000;SDS011;489;47.806;12.858;2023-06-22T05:18:37;10.13;;;8.60;;
1000;SDS011;489;47.806;12.858;2023-06-22T05:20:39;12.73;;;8.70;;
1000;SDS011;489;47.806;12.858;2023-06-22T05:22:59;10.00;;;8.50;;
1000;SDS011;489;47.806;12.858;2023-06-22T05:25:02;11.80;;;7.97;;
1000;SDS011;489;47.806;12.858;2023-06-22T05:27:06;11.80;;;8.90;;
1000;SDS011;489;47.806;12.858;2023-06-22T05:29:09;12.37;;;9.37;;
1000;SDS011;489;47.806;12.858;2023-06-22T05:31:12;11.90;;;7.90;;
1000;SDS011;489;47.806;12.858;2023-06-22T05:33:14;10.10;;;8.73;;
1000;SDS011;489;47.806;12.858;2023-06-22T05:35:17;9.93;;;7.80;;
1000;SDS011;489;47.806;12.858;2023-06-22T05:37:19;9.43;;;8.33;;
1000;SDS011;489;47.806;12.858;2023-06-22T05:39:21;10.33;;;8.20;;
1000;SDS011;489;47.806;12.858;2023-06-22T05:41:42;12.37;;;8.73;;
1000;SDS011;489;47.806;12.858;2023-06-22T05:43:44;11.07;;;8.90;;
1000;SDS011;489;47.806;12.858;2023-06-22T05:45:46;10.60;;;8.27;;
1000;SDS011;489;47.806;12.858;2023-06-22T05:47:48;12.33;;;8.93;;
1000;SDS011;489;47.806;12.858;2023-06-22T05:49:50;12.37;;;9.40;;
1000;SDS011;489;47.806;12.858;2023-06-22T05:51:53;12.27;;;9.13;;
1000;SDS011;489;47.806;12.858;2023-06-22T05:53:55;10.57;;;9.23;;
1000;SDS011;489;47.806;12.858;2023-06-22T05:55:57;11.60;;;8.67;;
1000;SDS011;489;47.806;12.858;2023-06-22T05:57:59;9.63;;;8.00;;
1000;SDS011;489;47.806;12.858;2023-06-22T06:00:01;11.90;;;10.13;;
1000;SDS011;489;47.806;12.858;2023-06-22T06:02:06;10.10;;;8.50;;
1000;SDS011;489;47.806;12.858;2023-06-22T06:04:08;12.63;;;9.30;;
1000;SDS011;489;47.806;12.858;2023-06-22T06:06:10;12.57;;;9.23;;
1000;SDS011;489;47.806;12.858;2023-06-22T06:08:13;9.13;;;8.23;;
1000;SDS011;489;47.806;12.858;2023-06-22T06:10:16;9.50;;;8.17;;
1000;SDS011;489;47.806;12.858;2023-06-22T06:12:17;11.27;;;8.13;;
1000;SDS011;489;47.806;12.858;2023-06-22T06:14:20;10.80;;;8.87;;
1000;SDS011;489;47.806;12.858;2023-06-22T06:16:22;12.77;;;8.77;;
1000;SDS011;489;47.806;12.858;2023-06-22T06:18:25;10.17;;;8.47;;
1000;SDS011;489;47.806;12.858;2023-06-22T06:20:27;9.10;;;8.17;;
1000;SDS011;489;47.806;12.858;2023-06-22T06:22:29;11.13;;;7.93;;
1000;SDS011;489;47.806;12.858;2023-06-22T06:24:33;11.37;;;8.77;;
1000;SDS011;489;47.806;12.858;2023-06-22T06:26:34;10.77;;;8.50;;
1000;SDS011;489;47.806;12.858;2023-06-22T06:28:36;9.00;;;7.30;;
1000;SDS011;489;47.806;12.858;2023-06-22T06:30:38;10.10;;;8.40;;
1000;SDS011;489;47.806;12.858;2023-06-22T06:32:42;9.77;;;8.00;;
1000;SDS011;489;47.806;12.858;2023-06-22T06:34:45;13.47;;;8.87;;
1000;SDS011;489;47.806;12.858;2023-06-22T06:36:48;11.87;;;7.23;;
1000;SDS011;489;47.806;12.858;2023-06-22T06:38:50;13.60;;;7.90;;
1000;SDS011;489;47.806;12.858;2023-06-22T06:40:53;13.47;;;7.90;;
1000;SDS011;489;47.806;12.858;2023-06-22T06:42:55;8.93;;;8.03;;
1000;SDS011;489;47.806;12.858;2023-06-22T06:44:57;10.17;;;7.87;;
1000;SDS011;489;47.806;12.858;2023-06-22T06:46:59;12.03;;;7.77;;
1000;SDS011;489;47.806;12.858;2023-06-22T06:49:01;8.80;;;7.90;;
1000;SDS011;489;47.806;12.858;2023-06-22T06:51:03;8.07;;;6.93;;
1000;SDS011;489;47.806;12.858;2023-06-22T06:53:05;8.20;;;7.40;;
1000;SDS011;489;47.806;12.858;2023-06-22T06:55:08;11.00;;;7.40;;
1000;SDS011;489;47.806;12.858;2023-06-22T06:57:34;10.20;;;7.50;;
1000;SDS011;489;47.806;12.858;2023-06-22T06:59:37;8.97;;;7.43;;
1000;SDS011;489;47.806;12.858;2023-06-22T07:01:39;10.80;;;7.77;;
1000;SDS011;489;47.806;12.858;2023-06-22T07:04:04;10.60;;;8.17;;
1000;SDS011;489;47.806;12.858;2023-06-22T07:06:06;10.80;;;7.73;;
1000;SDS011;489;47.806;12.858;2023-06-22T07:08:08;11.83;;;7.53;;
1000;SDS011;489;47.806;12.858;2023-06-22T07:10:10;7.70;;;6.90;;
1000;SDS011;489;47.806;12.858;2023-06-22T07:12:12;11.07;;;7.10;;
1000;SDS011;489;47.806;12.858;2023-06-22T07:14:15;9.10;;;7.20;;
1000;SDS011;489;47.806;12.858;2023-06-22T07:16:17;9.37;;;7.77;;
1000;SDS011;489;47.806;12.858;2023-06-22T07:18:19;11.40;;;7.83;;
1000;SDS011;489;47.806;12.858;2023-06-22T07:20:21;9.33;;;7.60;;
1000;SDS011;489;47.806;12.858;2023-06-22T07:22:23;10.57;;;8.17;;
1000;SDS011;489;47.806;12.858;2023-06-22T07:24:25;11.63;;;8.57;;
1000;SDS011;489;47.806;12.858;2023-06-22T07:26:27;8.70;;;7.80;;
1000;SDS011;489;47.806;12.858;2023-06-22T07:28:29;8.83;;;7.97;;
1000;SDS011;489;47.806;12.858;2023-06-22T07:30:39;12.87;;;8.00;;
1000;SDS011;489;47.806;12.858;2023-06-22T07:32:41;10.03;;;8.33;;
1000;SDS011;489;47.806;12.858;2023-06-22T07:34:43;8.57;;;7.70;;
1000;SDS011;489;47.806;12.858;2023-06-22T07:36:47;9.90;;;8.50;;
1000;SDS011;489;47.806;12.858;2023-06-22T07:38:49;9.47;;;7.27;;
1000;SDS011;489;47.806;12.858;2023-06-22T07:40:51;14.83;;;7.87;;
1000;SDS011;489;47.806;12.858;2023-06-22T07:42:54;10.77;;;7.27;;
1000;SDS011;489;47.806;12.858;2023-06-22T07:44:56;9.07;;;8.17;;
1000;SDS011;489;47.806;12.858;2023-06-22T07:46:59;13.67;;;8.10;;
1000;SDS011;489;47.806;12.858;2023-06-22T07:49:01;9.40;;;8.23;;
1000;SDS011;489;47.806;12.858;2023-06-22T07:51:03;9.93;;;8.40;;
1000;SDS011;489;47.806;12.858;2023-06-22T07:53:05;11.57;;;8.30;;
1000;SDS011;489;47.806;12.858;2023-06-22T07:55:08;11.47;;;8.47;;
1000;SDS011;489;47.806;12.858;2023-06-22T07:57:10;12.00;;;7.73;;
1000;SDS011;489;47.806;12.858;2023-06-22T07:59:12;9.77;;;8.33;;
1000;SDS011;489;47.806;12.858;2023-06-22T08:01:15;12.03;;;8.73;;
1000;SDS011;489;47.806;12.858;2023-06-22T08:03:18;13.90;;;8.10;;
1000;SDS011;489;47.806;12.858;2023-06-22T08:05:20;11.50;;;9.10;;
1000;SDS011;489;47.806;12.858;2023-06-22T08:07:22;13.00;;;8.37;;
1000;SDS011;489;47.806;12.858;2023-06-22T08:09:24;12.10;;;8.27;;
1000;SDS011;489;47.806;12.858;2023-06-22T08:11:26;11.10;;;8.27;;
1000;SDS011;489;47.806;12.858;2023-06-22T08:13:29;10.10;;;7.63;;
1000;SDS011;489;47.806;12.858;2023-06-22T08:15:31;9.57;;;8.30;;
1000;SDS011;489;47.806;12.858;2023-06-22T08:17:33;11.33;;;8.10;;
1000;SDS011;489;47.806;12.858;2023-06-22T08:19:36;13.30;;;7.43;;
1000;SDS011;489;47.806;12.858;2023-06-22T08:21:38;11.83;;;7.93;;
1000;SDS011;489;47.806;12.858;2023-06-22T08:23:40;9.40;;;7.30;;
1000;SDS011;489;47.806;12.858;2023-06-22T08:25:42;8.77;;;7.80;;
1000;SDS011;489;47.806;12.858;2023-06-22T08:27:45;10.57;;;7.50;;
1000;SDS011;489;47.806;12.858;2023-06-22T08:29:48;12.03;;;8.23;;
1000;SDS011;489;47.806;12.858;2023-06-22T08:31:51;9.27;;;7.73;;
1000;SDS011;489;47.806;12.858;2023-06-22T08:33:54;12.23;;;8.40;;
1000;SDS011;489;47.806;12.858;2023-06-22T08:35:57;10.00;;;8.10;;
1000;SDS011;489;47.806;12.858;2023-06-22T08:38:00;11.63;;;8.23;;
1000;SDS011;489;47.806;12.858;2023-06-22T08:40:03;10.10;;;7.30;;
1000;SDS011;489;47.806;12.858;2023-06-22T08:42:08;11.77;;;7.82;;
1000;SDS011;489;47.806;12.858;2023-06-22T08:44:10;12.50;;;8.43;;
1000;SDS011;489;47.806;12.858;2023-06-22T08:46:12;13.35;;;8.90;;
1000;SDS011;489;47.806;12.858;2023-06-22T08:48:14;8.95;;;7.97;;
1000;SDS011;489;47.806;12.858;2023-06-22T08:50:16;8.35;;;7.55;;
1000;SDS011;489;47.806;12.858;2023-06-22T08:52:20;11.95;;;8.10;;
1000;SDS011;489;47.806;12.858;2023-06-22T08:54:23;13.23;;;7.93;;
1000;SDS011;489;47.806;12.858;2023-06-22T08:56:25;14.07;;;7.65;;
1000;SDS011;489;47.806;12.858;2023-06-22T08:58:27;10.65;;;7.47;;
1000;SDS011;489;47.806;12.858;2023-06-22T09:00:29;10.55;;;7.65;;
1000;SDS011;489;47.806;12.858;2023-06-22T09:02:34;8.52;;;7.07;;
1000;SDS011;489;47.806;12.858;2023-06-22T09:04:37;10.25;;;7.20;;
1000;SDS011;489;47.806;12.858;2023-06-22T09:06:39;10.80;;;7.65;;
1000;SDS011;489;47.806;12.858;2023-06-22T09:08:46;11.75;;;7.85;;
1000;SDS011;489;47.806;12.858;2023-06-22T09:10:49;7.93;;;6.55;;
1000;SDS011;489;47.806;12.858;2023-06-22T09:12:51;9.50;;;6.90;;
1000;SDS011;489;47.806;12.858;2023-06-22T09:14:53;11.52;;;8.13;;
1000;SDS011;489;47.806;12.858;2023-06-22T09:16:56;7.45;;;6.50;;
1000;SDS011;489;47.806;12.858;2023-06-22T09:18:58;9.98;;;7.13;;
1000;SDS011;489;47.806;12.858;2023-06-22T09:21:00;12.98;;;7.38;;
1000;SDS011;489;47.806;12.858;2023-06-22T09:23:02;9.07;;;6.97;;
1000;SDS011;489;47.806;12.858;2023-06-22T09:25:06;14.77;;;7.22;;
1000;SDS011;489;47.806;12.858;2023-06-22T09:27:09;14.57;;;7.63;;
1000;SDS011;489;47.806;12.858;2023-06-22T09:29:11;11.65;;;7.50;;
1000;SDS011;489;47.806;12.858;2023-06-22T09:31:13;10.52;;;7.05;;
1000;SDS011;489;47.806;12.858;2023-06-22T09:33:16;8.55;;;6.93;;
1000;SDS011;489;47.806;12.858;2023-06-22T09:35:20;7.70;;;6.07;;
1000;SDS011;489;47.806;12.858;2023-06-22T09:37:22;11.48;;;6.80;;
1000;SDS011;489;47.806;12.858;2023-06-22T09:39:24;12.10;;;6.93;;
1000;SDS011;489;47.806;12.858;2023-06-22T09:41:27;10.32;;;6.70;;
1000;SDS011;489;47.806;12.858;2023-06-22T09:43:29;8.30;;;6.32;;
1000;SDS011;489;47.806;12.858;2023-06-22T09:45:32;13.45;;;6.95;;
1000;SDS011;489;47.806;12.858;2023-06-22T09:47:53;11.00;;;7.13;;
1000;SDS011;489;47.806;12.858;2023-06-22T09:49:55;11.10;;;6.35;;
1000;SDS011;489;47.806;12.858;2023-06-22T09:51:56;8.85;;;5.80;;
1000;SDS011;489;47.806;12.858;2023-06-22T09:53:59;9.52;;;6.05;;
1000;SDS011;489;47.806;12.858;2023-06-22T09:56:01;12.00;;;6.97;;
1000;SDS011;489;47.806;12.858;2023-06-22T09:58:04;11.00;;;6.05;;
1000;SDS011;489;47.806;12.858;2023-06-22T10:00:06;9.13;;;6.40;;
1000;SDS011;489;47.806;12.858;2023-06-22T10:02:11;9.75;;;6.57;;
1000;SDS011;489;47.806;12.858;2023-06-22T10:04:13;7.57;;;6.78;;
1000;SDS011;489;47.806;12.858;2023-06-22T10:06:16;10.02;;;6.90;;
1000;SDS011;489;47.806;12.858;2023-06-22T10:08:18;9.15;;;6.63;;
1000;SDS011;489;47.806;12.858;2023-06-22T10:10:19;9.48;;;6.60;;
1000;SDS011;489;47.806;12.858;2023-06-22T10:12:21;10.48;;;6.13;;
1000;SDS011;489;47.806;12.858;2023-06-22T10:14:25;8.32;;;5.95;;
1000;SDS011;489;47.806;12.858;2023-06-22T10:16:30;9.00;;;7.40;;
1000;SDS011;489;47.806;12.858;2023-06-22T10:18:32;11.07;;;7.18;;
1000;SDS011;489;47.806;12.858;2023-06-22T10:20:34;13.48;;;7.15;;
1000;SDS011;489;47.806;12.858;2023-06-22T10:22:37;8.73;;;6.95;;
1000;SDS011;489;47.806;12.858;2023-06-22T10:24:39;9.40;;;6.50;;
1000;SDS011;489;47.806;12.858;2023-06-22T10:26:44;9.07;;;7.07;;
1000;SDS011;489;47.806;12.858;2023-06-22T10:28:46;8.85;;;6.90;;
1000;SDS011;489;47.806;12.858;2023-06-22T10:30:50;8.80;;;7.28;;
1000;SDS011;489;47.806;12.858;2023-06-22T10:32:52;8.95;;;7.40;;
1000;SDS011;489;47.806;12.858;2023-06-22T10:34:54;7.53;;;6.72;;
1000;SDS011;489;47.806;12.858;2023-06-22T10:36:56;12.18;;;7.18;;
1000;SDS011;489;47.806;12.858;2023-06-22T10:38:58;12.25;;;7.78;;
1000;SDS011;489;47.806;12.858;2023-06-22T10:41:02;9.82;;;7.47;;
1000;SDS011;489;47.806;12.858;2023-06-22T10:43:04;9.25;;;7.47;;
1000;SDS011;489;47.806;12.858;2023-06-22T10:45:06;13.85;;;8.40;;
1000;SDS011;489;47.806;12.858;2023-06-22T10:47:10;10.02;;;7.18;;
1000;SDS011;489;47.806;12.858;2023-06-22T10:49:12;9.57;;;6.95;;
1000;SDS011;489;47.806;12.858;2023-06-22T10:51:15;10.90;;;7.55;;
1000;SDS011;489;47.806;12.858;2023-06-22T10:53:16;10.13;;;7.05;;
1000;SDS011;489;47.806;12.858;2023-06-22T10:55:18;14.27;;;8.27;;
1000;SDS011;489;47.806;12.858;2023-06-22T10:57:21;13.07;;;7.82;;
1000;SDS011;489;47.806;12.858;2023-06-22T10:59:23;8.80;;;7.57;;
1000;SDS011;489;47.806;12.858;2023-06-22T11:01:26;11.10;;;7.72;;
1000;SDS011;489;47.806;12.858;2023-06-22T11:03:29;11.60;;;7.90;;
1000;SDS011;489;47.806;12.858;2023-06-22T11:05:31;10.50;;;7.50;;
1000;SDS011;489;47.806;12.858;2023-06-22T11:07:34;8.30;;;7.47;;
1000;SDS011;489;47.806;12.858;2023-06-22T11:09:35;10.48;;;7.10;;
1000;SDS011;489;47.806;12.858;2023-06-22T11:11:39;10.82;;;7.57;;
1000;SDS011;489;47.806;12.858;2023-06-22T11:13:42;9.18;;;7.30;;
1000;SDS011;489;47.806;12.858;2023-06-22T11:15:44;10.98;;;7.25;;
1000;SDS011;489;47.806;12.858;2023-06-22T11:17:46;10.70;;;7.35;;
1000;SDS011;489;47.806;12.858;2023-06-22T11:19:49;11.57;;;6.85;;
1000;SDS011;489;47.806;12.858;2023-06-22T11:21:52;13.40;;;6.57;;
1000;SDS011;489;47.806;12.858;2023-06-22T11:23:55;11.20;;;7.55;;
1000;SDS011;489;47.806;12.858;2023-06-22T11:25:57;11.40;;;7.57;;
1000;SDS011;489;47.806;12.858;2023-06-22T11:27:58;10.98;;;8.15;;
1000;SDS011;489;47.806;12.858;2023-06-22T11:30:01;9.70;;;7.13;;
1000;SDS011;489;47.806;12.858;2023-06-22T11:32:03;8.25;;;7.25;;
1000;SDS011;489;47.806;12.858;2023-06-22T11:34:07;10.23;;;7.68;;
1000;SDS011;489;47.806;12.858;2023-06-22T11:36:10;10.23;;;7.10;;
1000;SDS011;489;47.806;12.858;2023-06-22T11:38:12;12.50;;;8.45;;
1000;SDS011;489;47.806;12.858;2023-06-22T11:40:14;11.27;;;7.72;;
1000;SDS011;489;47.806;12.858;2023-06-22T11:42:18;10.95;;;7.95;;
1000;SDS011;489;47.806;12.858;2023-06-22T11:44:20;10.95;;;7.82;;
1000;SDS011;489;47.806;12.858;2023-06-22T11:46:22;8.57;;;7.65;;
1000;SDS011;489;47.806;12.858;2023-06-22T11:48:25;10.10;;;7.55;;
1000;SDS011;489;47.806;12.858;2023-06-22T11:50:26;9.63;;;8.07;;
1000;SDS011;489;47.806;12.858;2023-06-22T11:52:32;9.98;;;7.85;;
1000;SDS011;489;47.806;12.858;2023-06-22T11:54:37;10.63;;;7.25;;
1000;SDS011;489;47.806;12.858;2023-06-22T11:56:39;9.50;;;8.07;;
1000;SDS011;489;47.806;12.858;2023-06-22T11:58:41;11.85;;;7.93;;
1000;SDS011;489;47.806;12.858;2023-06-22T12:00:43;7.25;;;6.55;;
1000;SDS011;489;47.806;12.858;2023-06-22T12:02:45;8.10;;;7.28;;
1000;SDS011;489;47.806;12.858;2023-06-22T12:04:49;10.30;;;6.90;;
1000;SDS011;489;47.806;12.858;2023-06-22T12:10:16;8.05;;;7.10;;
1000;SDS011;489;47.806;12.858;2023-06-22T12:12:19;8.68;;;7.45;;
1000;SDS011;489;47.806;12.858;2023-06-22T12:14:21;8.50;;;7.45;;
1000;SDS011;489;47.806;12.858;2023-06-22T12:16:23;13.18;;;7.97;;
1000;SDS011;489;47.806;12.858;2023-06-22T12:18:26;8.27;;;7.38;;
1000;SDS011;489;47.806;12.858;2023-06-22T12:20:28;8.45;;;6.80;;
1000;SDS011;489;47.806;12.858;2023-06-22T12:22:30;10.52;;;7.28;;
1000;SDS011;489;47.806;12.858;2023-06-22T12:24:32;10.13;;;7.72;;
1000;SDS011;489;47.806;12.858;2023-06-22T12:26:36;9.75;;;7.53;;
1000;SDS011;489;47.806;12.858;2023-06-22T12:28:37;7.00;;;6.30;;
1000;SDS011;489;47.806;12.858;2023-06-22T12:30:39;11.85;;;7.57;;
1000;SDS011;489;47.806;12.858;2023-06-22T12:32:41;10.02;;;7.80;;
1000;SDS011;489;47.806;12.858;2023-06-22T12:34:44;9.80;;;7.32;;
1000;SDS011;489;47.806;12.858;2023-06-22T12:36:46;11.57;;;7.90;;
1000;SDS011;489;47.806;12.858;2023-06-22T12:38:49;8.80;;;7.57;;
1000;SDS011;489;47.806;12.858;2023-06-22T12:40:52;9.68;;;6.78;;
1000;SDS011;489;47.806;12.858;2023-06-22T12:42:56;9.40;;;7.57;;
1000;SDS011;489;47.806;12.858;2023-06-22T12:44:57;16.17;;;8.10;;